sensor_id;sensor_type;location;lat;lon;timestamp;temperature;humidity
6486;DHT22;3276;48.490;9.222;2023-07-09T00:02:20;21.00;4.10
6486;DHT22;3276;48.490;9.222;2023-07-09T00:04:46;20.90;4.00
6486;DHT22;3276;48.490;9.222;2023-07-09T00:07:19;20.90;4.90
6486;DHT22;3276;48.490;9.222;2023-07-09T00:09:47;20.90;4.30
6486;DHT22;3276;48.490;9.222;2023-07-09T00:12:14;20.90;4.90
6486;DHT22;3276;48.490;9.222;2023-07-09T00:14:40;20.80;5.00
6486;DHT22;3276;48.490;9.222;2023-07-09T00:17:27;20.70;5.00
6486;DHT22;3276;48.490;9.222;2023-07-09T00:19:53;20.70;5.00
6486;DHT22;3276;48.490;9.222;2023-07-09T00:22:19;20.60;5.40
6486;DHT22;3276;48.490;9.222;2023-07-09T00:24:47;20.60;5.80
6486;DHT22;3276;48.490;9.222;2023-07-09T00:27:13;20.50;6.20
6486;DHT22;3276;48.490;9.222;2023-07-09T00:29:40;20.50;5.80
6486;DHT22;3276;48.490;9.222;2023-07-09T00:32:14;20.50;6.10
6486;DHT22;3276;48.490;9.222;2023-07-09T00:34:42;20.50;6.20
6486;DHT22;3276;48.490;9.222;2023-07-09T00:37:11;20.50;6.40
6486;DHT22;3276;48.490;9.222;2023-07-09T00:39:38;20.50;6.40
6486;DHT22;3276;48.490;9.222;2023-07-09T00:42:07;20.40;6.40
6486;DHT22;3276;48.490;9.222;2023-07-09T00:44:36;20.40;7.60
6486;DHT22;3276;48.490;9.222;2023-07-09T00:49:46;20.20;7.00
6486;DHT22;3276;48.490;9.222;2023-07-09T00:52:35;20.20;7.50
6486;DHT22;3276;48.490;9.222;2023-07-09T00:55:07;20.20;7.70
6486;DHT22;3276;48.490;9.222;2023-07-09T00:57:36;20.10;7.60
6486;DHT22;3276;48.490;9.222;2023-07-09T01:00:06;20.00;7.60
6486;DHT22;3276;48.490;9.222;2023-07-09T01:02:35;20.00;7.90
6486;DHT22;3276;48.490;9.222;2023-07-09T01:05:01;19.90;8.60
6486;DHT22;3276;48.490;9.222;2023-07-09T01:07:28;19.80;8.50
6486;DHT22;3276;48.490;9.222;2023-07-09T01:09:54;19.80;9.20
6486;DHT22;3276;48.490;9.222;2023-07-09T01:12:21;19.70;9.30
6486;DHT22;3276;48.490;9.222;2023-07-09T01:14:53;19.70;9.30
6486;DHT22;3276;48.490;9.222;2023-07-09T01:17:20;19.70;9.20
6486;DHT22;3276;48.490;9.222;2023-07-09T01:19:50;19.60;9.60
6486;DHT22;3276;48.490;9.222;2023-07-09T01:22:19;19.60;9.80
6486;DHT22;3276;48.490;9.222;2023-07-09T01:24:54;19.60;9.70
6486;DHT22;3276;48.490;9.222;2023-07-09T01:27:24;19.60;9.50
6486;DHT22;3276;48.490;9.222;2023-07-09T01:29:52;19.70;9.50
6486;DHT22;3276;48.490;9.222;2023-07-09T01:32:19;19.60;9.70
6486;DHT22;3276;48.490;9.222;2023-07-09T01:34:47;19.60;9.80
6486;DHT22;3276;48.490;9.222;2023-07-09T01:37:16;19.60;10.00
6486;DHT22;3276;48.490;9.222;2023-07-09T01:39:42;19.50;10.30
6486;DHT22;3276;48.490;9.222;2023-07-09T01:42:08;19.40;10.50
6486;DHT22;3276;48.490;9.222;2023-07-09T01:44:34;19.40;11.00
6486;DHT22;3276;48.490;9.222;2023-07-09T01:47:01;19.30;10.90
6486;DHT22;3276;48.490;9.222;2023-07-09T01:49:30;19.30;10.90
6486;DHT22;3276;48.490;9.222;2023-07-09T01:51:58;19.30;11.10
6486;DHT22;3276;48.490;9.222;2023-07-09T01:54:27;19.30;11.30
6486;DHT22;3276;48.490;9.222;2023-07-09T01:56:52;19.20;11.60
6486;DHT22;3276;48.490;9.222;2023-07-09T01:59:22;19.20;11.50
6486;DHT22;3276;48.490;9.222;2023-07-09T02:01:47;19.10;11.50
6486;DHT22;3276;48.490;9.222;2023-07-09T02:04:13;19.10;12.00
6486;DHT22;3276;48.490;9.222;2023-07-09T02:06:38;19.00;12.10
6486;DHT22;3276;48.490;9.222;2023-07-09T02:09:04;19.00;12.30
6486;DHT22;3276;48.490;9.222;2023-07-09T02:11:30;19.00;12.70
6486;DHT22;3276;48.490;9.222;2023-07-09T02:13:55;19.00;12.40
6486;DHT22;3276;48.490;9.222;2023-07-09T02:16:21;19.00;12.60
6486;DHT22;3276;48.490;9.222;2023-07-09T02:18:46;19.00;12.70
6486;DHT22;3276;48.490;9.222;2023-07-09T02:21:12;18.90;12.90
6486;DHT22;3276;48.490;9.222;2023-07-09T02:23:37;18.80;13.30
6486;DHT22;3276;48.490;9.222;2023-07-09T02:26:03;18.80;13.50
6486;DHT22;3276;48.490;9.222;2023-07-09T02:28:28;18.70;13.70
6486;DHT22;3276;48.490;9.222;2023-07-09T02:30:54;18.70;13.60
6486;DHT22;3276;48.490;9.222;2023-07-09T02:33:19;18.70;13.90
6486;DHT22;3276;48.490;9.222;2023-07-09T02:35:46;18.70;13.90
6486;DHT22;3276;48.490;9.222;2023-07-09T02:38:12;18.70;14.30
6486;DHT22;3276;48.490;9.222;2023-07-09T02:40:38;18.50;14.80
6486;DHT22;3276;48.490;9.222;2023-07-09T02:43:04;18.60;14.70
6486;DHT22;3276;48.490;9.222;2023-07-09T02:45:29;18.60;14.60
6486;DHT22;3276;48.490;9.222;2023-07-09T02:47:55;18.60;14.30
6486;DHT22;3276;48.490;9.222;2023-07-09T02:50:20;18.50;14.90
6486;DHT22;3276;48.490;9.222;2023-07-09T02:52:46;18.50;15.20
6486;DHT22;3276;48.490;9.222;2023-07-09T02:55:12;18.40;15.40
6486;DHT22;3276;48.490;9.222;2023-07-09T02:57:37;18.50;15.30
6486;DHT22;3276;48.490;9.222;2023-07-09T03:00:03;18.50;15.20
6486;DHT22;3276;48.490;9.222;2023-07-09T03:02:30;18.50;14.90
6486;DHT22;3276;48.490;9.222;2023-07-09T03:04:56;18.50;14.80
6486;DHT22;3276;48.490;9.222;2023-07-09T03:07:21;18.50;14.80
6486;DHT22;3276;48.490;9.222;2023-07-09T03:09:47;18.50;15.20
6486;DHT22;3276;48.490;9.222;2023-07-09T03:12:12;18.40;15.50
6486;DHT22;3276;48.490;9.222;2023-07-09T03:14:38;18.40;15.50
6486;DHT22;3276;48.490;9.222;2023-07-09T03:17:04;18.40;15.50
6486;DHT22;3276;48.490;9.222;2023-07-09T03:19:29;18.40;15.40
6486;DHT22;3276;48.490;9.222;2023-07-09T03:21:55;18.40;15.40
6486;DHT22;3276;48.490;9.222;2023-07-09T03:24:20;18.30;15.40
6486;DHT22;3276;48.490;9.222;2023-07-09T03:26:47;18.30;15.40
6486;DHT22;3276;48.490;9.222;2023-07-09T03:29:13;18.30;15.40
6486;DHT22;3276;48.490;9.222;2023-07-09T03:31:38;18.30;15.60
6486;DHT22;3276;48.490;9.222;2023-07-09T03:34:04;18.20;15.90
6486;DHT22;3276;48.490;9.222;2023-07-09T03:36:29;18.30;16.30
6486;DHT22;3276;48.490;9.222;2023-07-09T03:38:55;18.20;16.60
6486;DHT22;3276;48.490;9.222;2023-07-09T03:41:21;18.20;16.50
6486;DHT22;3276;48.490;9.222;2023-07-09T03:43:46;18.20;16.40
6486;DHT22;3276;48.490;9.222;2023-07-09T03:46:12;18.20;16.40
6486;DHT22;3276;48.490;9.222;2023-07-09T03:48:38;18.30;16.20
6486;DHT22;3276;48.490;9.222;2023-07-09T03:51:03;18.30;16.30
6486;DHT22;3276;48.490;9.222;2023-07-09T03:53:29;18.30;16.30
6486;DHT22;3276;48.490;9.222;2023-07-09T03:55:55;18.30;16.30
6486;DHT22;3276;48.490;9.222;2023-07-09T03:58:23;18.40;15.90
6486;DHT22;3276;48.490;9.222;2023-07-09T04:00:49;18.40;16.10
6486;DHT22;3276;48.490;9.222;2023-07-09T04:03:14;18.30;16.50
6486;DHT22;3276;48.490;9.222;2023-07-09T04:05:40;18.40;16.40
6486;DHT22;3276;48.490;9.222;2023-07-09T04:08:05;18.40;16.10
6486;DHT22;3276;48.490;9.222;2023-07-09T04:10:31;18.50;15.50
6486;DHT22;3276;48.490;9.222;2023-07-09T04:12:57;18.60;15.60
6486;DHT22;3276;48.490;9.222;2023-07-09T04:15:23;18.70;15.60
6486;DHT22;3276;48.490;9.222;2023-07-09T04:17:49;18.70;15.50
6486;DHT22;3276;48.490;9.222;2023-07-09T04:20:14;18.80;15.00
6486;DHT22;3276;48.490;9.222;2023-07-09T04:22:41;18.80;14.10
6486;DHT22;3276;48.490;9.222;2023-07-09T04:25:09;18.90;14.00
6486;DHT22;3276;48.490;9.222;2023-07-09T04:27:35;19.00;13.80
6486;DHT22;3276;48.490;9.222;2023-07-09T04:30:01;19.10;13.50
6486;DHT22;3276;48.490;9.222;2023-07-09T04:32:27;19.20;13.30
6486;DHT22;3276;48.490;9.222;2023-07-09T04:34:53;19.20;12.50
6486;DHT22;3276;48.490;9.222;2023-07-09T04:37:19;19.30;12.20
6486;DHT22;3276;48.490;9.222;2023-07-09T04:39:45;19.30;12.00
6486;DHT22;3276;48.490;9.222;2023-07-09T04:42:15;19.40;12.20
6486;DHT22;3276;48.490;9.222;2023-07-09T04:44:42;19.40;12.20
6486;DHT22;3276;48.490;9.222;2023-07-09T04:47:07;19.40;12.00
6486;DHT22;3276;48.490;9.222;2023-07-09T04:49:34;19.40;12.30
6486;DHT22;3276;48.490;9.222;2023-07-09T04:52:00;19.40;12.30
6486;DHT22;3276;48.490;9.222;2023-07-09T04:54:26;19.40;12.00
6486;DHT22;3276;48.490;9.222;2023-07-09T04:56:52;19.50;12.10
6486;DHT22;3276;48.490;9.222;2023-07-09T04:59:18;19.60;12.20
6486;DHT22;3276;48.490;9.222;2023-07-09T05:01:44;19.70;12.20
6486;DHT22;3276;48.490;9.222;2023-07-09T05:04:09;19.60;11.80
6486;DHT22;3276;48.490;9.222;2023-07-09T05:06:35;19.80;11.50
6486;DHT22;3276;48.490;9.222;2023-07-09T05:09:01;19.90;10.80
6486;DHT22;3276;48.490;9.222;2023-07-09T05:11:26;20.00;10.80
6486;DHT22;3276;48.490;9.222;2023-07-09T05:13:52;20.10;10.20
6486;DHT22;3276;48.490;9.222;2023-07-09T05:16:18;20.20;9.80
6486;DHT22;3276;48.490;9.222;2023-07-09T05:18:45;20.40;8.90
6486;DHT22;3276;48.490;9.222;2023-07-09T05:21:10;20.50;7.90
6486;DHT22;3276;48.490;9.222;2023-07-09T05:23:36;20.70;8.10
6486;DHT22;3276;48.490;9.222;2023-07-09T05:26:03;20.70;8.00
6486;DHT22;3276;48.490;9.222;2023-07-09T05:28:30;20.80;8.20
6486;DHT22;3276;48.490;9.222;2023-07-09T05:30:55;20.90;6.90
6486;DHT22;3276;48.490;9.222;2023-07-09T05:33:21;21.00;6.50
6486;DHT22;3276;48.490;9.222;2023-07-09T05:35:47;21.20;6.20
6486;DHT22;3276;48.490;9.222;2023-07-09T05:38:13;21.40;5.80
6486;DHT22;3276;48.490;9.222;2023-07-09T05:40:39;21.70;5.00
6486;DHT22;3276;48.490;9.222;2023-07-09T05:43:05;22.90;3.40
6486;DHT22;3276;48.490;9.222;2023-07-09T05:45:31;25.40;1.00
6486;DHT22;3276;48.490;9.222;2023-07-09T05:47:58;28.30;1.00
6486;DHT22;3276;48.490;9.222;2023-07-09T05:52:50;32.70;1.00
6486;DHT22;3276;48.490;9.222;2023-07-09T05:55:15;34.20;1.00
6486;DHT22;3276;48.490;9.222;2023-07-09T05:57:41;35.40;1.00
6486;DHT22;3276;48.490;9.222;2023-07-09T06:00:07;36.10;1.00
6486;DHT22;3276;48.490;9.222;2023-07-09T06:02:34;37.00;1.00
6486;DHT22;3276;48.490;9.222;2023-07-09T06:05:00;37.90;1.00
6486;DHT22;3276;48.490;9.222;2023-07-09T06:07:25;37.90;1.00
6486;DHT22;3276;48.490;9.222;2023-07-09T06:09:51;38.10;1.00
6486;DHT22;3276;48.490;9.222;2023-07-09T06:12:17;38.80;1.00
6486;DHT22;3276;48.490;9.222;2023-07-09T06:14:43;39.20;1.00
6486;DHT22;3276;48.490;9.222;2023-07-09T06:17:09;40.20;1.00
6486;DHT22;3276;48.490;9.222;2023-07-09T06:19:35;40.50;1.00
6486;DHT22;3276;48.490;9.222;2023-07-09T06:22:00;39.80;1.00
6486;DHT22;3276;48.490;9.222;2023-07-09T06:24:26;40.10;1.00
6486;DHT22;3276;48.490;9.222;2023-07-09T06:26:51;40.00;1.00
6486;DHT22;3276;48.490;9.222;2023-07-09T06:29:17;40.40;1.00
6486;DHT22;3276;48.490;9.222;2023-07-09T06:31:42;40.80;1.00
6486;DHT22;3276;48.490;9.222;2023-07-09T06:34:08;41.00;1.00
6486;DHT22;3276;48.490;9.222;2023-07-09T06:36:35;41.70;1.00
6486;DHT22;3276;48.490;9.222;2023-07-09T06:39:01;42.30;1.00
6486;DHT22;3276;48.490;9.222;2023-07-09T06:41:27;41.80;1.00
6486;DHT22;3276;48.490;9.222;2023-07-09T06:43:52;42.20;1.00
6486;DHT22;3276;48.490;9.222;2023-07-09T06:46:19;41.80;1.00
6486;DHT22;3276;48.490;9.222;2023-07-09T06:48:45;41.00;1.00
6486;DHT22;3276;48.490;9.222;2023-07-09T06:51:10;40.90;1.00
6486;DHT22;3276;48.490;9.222;2023-07-09T06:53:36;40.30;1.00
6486;DHT22;3276;48.490;9.222;2023-07-09T06:56:02;40.90;1.00
6486;DHT22;3276;48.490;9.222;2023-07-09T06:58:29;41.30;1.00
6486;DHT22;3276;48.490;9.222;2023-07-09T07:00:57;41.90;1.00
6486;DHT22;3276;48.490;9.222;2023-07-09T07:03:23;40.90;1.00
6486;DHT22;3276;48.490;9.222;2023-07-09T07:05:51;42.30;1.00
6486;DHT22;3276;48.490;9.222;2023-07-09T07:08:20;42.40;1.00
6486;DHT22;3276;48.490;9.222;2023-07-09T07:10:49;43.00;1.00
6486;DHT22;3276;48.490;9.222;2023-07-09T07:13:15;42.20;1.00
6486;DHT22;3276;48.490;9.222;2023-07-09T07:15:41;42.50;1.00
6486;DHT22;3276;48.490;9.222;2023-07-09T07:18:07;43.40;1.00
6486;DHT22;3276;48.490;9.222;2023-07-09T07:20:33;43.40;1.00
6486;DHT22;3276;48.490;9.222;2023-07-09T07:22:59;44.10;1.00
6486;DHT22;3276;48.490;9.222;2023-07-09T07:25:25;43.60;1.00
6486;DHT22;3276;48.490;9.222;2023-07-09T07:27:51;42.90;1.00
6486;DHT22;3276;48.490;9.222;2023-07-09T07:30:17;41.70;1.00
6486;DHT22;3276;48.490;9.222;2023-07-09T07:32:45;41.40;1.00
6486;DHT22;3276;48.490;9.222;2023-07-09T07:35:11;40.90;1.00
6486;DHT22;3276;48.490;9.222;2023-07-09T07:37:36;42.60;1.00
6486;DHT22;3276;48.490;9.222;2023-07-09T07:40:02;42.10;1.00
6486;DHT22;3276;48.490;9.222;2023-07-09T07:42:30;43.90;1.00
6486;DHT22;3276;48.490;9.222;2023-07-09T07:44:55;43.60;1.00
6486;DHT22;3276;48.490;9.222;2023-07-09T07:47:21;44.00;1.00
6486;DHT22;3276;48.490;9.222;2023-07-09T07:49:46;43.70;1.00
6486;DHT22;3276;48.490;9.222;2023-07-09T07:52:12;44.60;1.00
6486;DHT22;3276;48.490;9.222;2023-07-09T07:54:38;45.20;1.00
6486;DHT22;3276;48.490;9.222;2023-07-09T07:57:04;45.80;1.00
6486;DHT22;3276;48.490;9.222;2023-07-09T07:59:29;47.00;1.00
6486;DHT22;3276;48.490;9.222;2023-07-09T08:01:55;47.50;1.00
6486;DHT22;3276;48.490;9.222;2023-07-09T08:04:21;47.40;1.00
6486;DHT22;3276;48.490;9.222;2023-07-09T08:06:47;46.50;1.00
6486;DHT22;3276;48.490;9.222;2023-07-09T08:09:12;46.20;1.00
6486;DHT22;3276;48.490;9.222;2023-07-09T08:11:38;46.00;1.00
6486;DHT22;3276;48.490;9.222;2023-07-09T08:14:04;46.70;1.00
6486;DHT22;3276;48.490;9.222;2023-07-09T08:16:30;47.60;1.00
6486;DHT22;3276;48.490;9.222;2023-07-09T08:18:55;47.00;1.00
6486;DHT22;3276;48.490;9.222;2023-07-09T08:21:21;46.10;1.00
6486;DHT22;3276;48.490;9.222;2023-07-09T08:23:46;46.40;1.00
6486;DHT22;3276;48.490;9.222;2023-07-09T08:26:12;46.70;1.00
6486;DHT22;3276;48.490;9.222;2023-07-09T08:28:38;46.50;1.00
6486;DHT22;3276;48.490;9.222;2023-07-09T08:31:04;47.50;1.00
6486;DHT22;3276;48.490;9.222;2023-07-09T08:33:30;46.90;1.00
6486;DHT22;3276;48.490;9.222;2023-07-09T08:35:56;46.40;1.00
6486;DHT22;3276;48.490;9.222;2023-07-09T08:38:22;47.60;1.00
6486;DHT22;3276;48.490;9.222;2023-07-09T08:46:07;46.20;1.00
6486;DHT22;3276;48.490;9.222;2023-07-09T08:48:38;47.00;1.00
6486;DHT22;3276;48.490;9.222;2023-07-09T08:54:00;47.60;1.00
6486;DHT22;3276;48.490;9.222;2023-07-09T08:56:28;47.70;1.00
6486;DHT22;3276;48.490;9.222;2023-07-09T08:58:55;47.50;1.00
6486;DHT22;3276;48.490;9.222;2023-07-09T09:01:53;47.20;1.00
6486;DHT22;3276;48.490;9.222;2023-07-09T09:04:29;48.20;1.00
6486;DHT22;3276;48.490;9.222;2023-07-09T09:10:03;47.90;1.00
6486;DHT22;3276;48.490;9.222;2023-07-09T09:12:35;46.20;1.00
6486;DHT22;3276;48.490;9.222;2023-07-09T09:15:25;45.80;1.00
6486;DHT22;3276;48.490;9.222;2023-07-09T09:17:54;46.40;1.00
6486;DHT22;3276;48.490;9.222;2023-07-09T09:20:22;45.50;1.00
6486;DHT22;3276;48.490;9.222;2023-07-09T09:25:18;40.70;1.00
6486;DHT22;3276;48.490;9.222;2023-07-09T09:27:45;38.80;1.00
6486;DHT22;3276;48.490;9.222;2023-07-09T09:30:17;37.20;1.00
6486;DHT22;3276;48.490;9.222;2023-07-09T09:32:47;36.20;1.00
6486;DHT22;3276;48.490;9.222;2023-07-09T09:35:17;35.30;1.00
6486;DHT22;3276;48.490;9.222;2023-07-09T09:37:50;34.50;1.00
6486;DHT22;3276;48.490;9.222;2023-07-09T09:40:17;34.20;1.00
6486;DHT22;3276;48.490;9.222;2023-07-09T09:42:44;34.10;1.00
6486;DHT22;3276;48.490;9.222;2023-07-09T09:45:16;33.90;1.00
6486;DHT22;3276;48.490;9.222;2023-07-09T09:47:43;33.70;1.00
6486;DHT22;3276;48.490;9.222;2023-07-09T09:50:20;33.50;1.00
6486;DHT22;3276;48.490;9.222;2023-07-09T09:52:47;33.60;1.00
6486;DHT22;3276;48.490;9.222;2023-07-09T09:55:19;33.80;1.00
6486;DHT22;3276;48.490;9.222;2023-07-09T09:57:53;33.70;1.00
6486;DHT22;3276;48.490;9.222;2023-07-09T10:00:23;33.80;1.00
6486;DHT22;3276;48.490;9.222;2023-07-09T10:02:50;33.60;1.00
6486;DHT22;3276;48.490;9.222;2023-07-09T10:05:16;33.50;1.00
6486;DHT22;3276;48.490;9.222;2023-07-09T10:08:06;33.60;1.00
6486;DHT22;3276;48.490;9.222;2023-07-09T10:10:33;33.50;1.00
6486;DHT22;3276;48.490;9.222;2023-07-09T10:13:19;33.40;1.00
6486;DHT22;3276;48.490;9.222;2023-07-09T10:22:55;33.70;1.00
6486;DHT22;3276;48.490;9.222;2023-07-09T10:25:16;33.60;1.00
6486;DHT22;3276;48.490;9.222;2023-07-09T10:27:48;33.70;1.00
6486;DHT22;3276;48.490;9.222;2023-07-09T10:30:21;33.70;1.00
6486;DHT22;3276;48.490;9.222;2023-07-09T10:33:08;33.80;1.00
6486;DHT22;3276;48.490;9.222;2023-07-09T10:35:50;33.70;1.00
6486;DHT22;3276;48.490;9.222;2023-07-09T10:38:31;34.00;1.00
6486;DHT22;3276;48.490;9.222;2023-07-09T10:41:01;34.10;1.00
6486;DHT22;3276;48.490;9.222;2023-07-09T10:46:15;34.30;1.00
6486;DHT22;3276;48.490;9.222;2023-07-09T10:48:44;34.40;1.00
6486;DHT22;3276;48.490;9.222;2023-07-09T10:51:28;34.30;1.00
6486;DHT22;3276;48.490;9.222;2023-07-09T10:54:21;34.40;1.00
6486;DHT22;3276;48.490;9.222;2023-07-09T10:56:54;34.50;1.00
6486;DHT22;3276;48.490;9.222;2023-07-09T10:59:34;34.50;1.00
6486;DHT22;3276;48.490;9.222;2023-07-09T11:02:13;34.60;1.00
6486;DHT22;3276;48.490;9.222;2023-07-09T11:04:46;34.70;1.00
6486;DHT22;3276;48.490;9.222;2023-07-09T11:07:16;34.60;1.00
6486;DHT22;3276;48.490;9.222;2023-07-09T11:09:45;34.50;1.00
6486;DHT22;3276;48.490;9.222;2023-07-09T11:12:23;34.50;1.00
6486;DHT22;3276;48.490;9.222;2023-07-09T11:14:54;34.60;1.00
6486;DHT22;3276;48.490;9.222;2023-07-09T11:17:21;34.40;1.00
6486;DHT22;3276;48.490;9.222;2023-07-09T11:19:54;34.50;1.00
6486;DHT22;3276;48.490;9.222;2023-07-09T11:24:50;34.70;1.00
6486;DHT22;3276;48.490;9.222;2023-07-09T11:27:18;34.70;1.00
6486;DHT22;3276;48.490;9.222;2023-07-09T11:29:55;34.90;1.00
6486;DHT22;3276;48.490;9.222;2023-07-09T11:32:22;34.60;1.00
6486;DHT22;3276;48.490;9.222;2023-07-09T11:34:48;34.60;1.00
6486;DHT22;3276;48.490;9.222;2023-07-09T11:37:15;34.50;1.00
6486;DHT22;3276;48.490;9.222;2023-07-09T11:44:54;34.40;1.00
6486;DHT22;3276;48.490;9.222;2023-07-09T11:47:25;34.60;1.00
6486;DHT22;3276;48.490;9.222;2023-07-09T11:49:56;34.70;1.00
6486;DHT22;3276;48.490;9.222;2023-07-09T11:52:37;34.90;1.00
6486;DHT22;3276;48.490;9.222;2023-07-09T11:55:28;34.80;1.00
6486;DHT22;3276;48.490;9.222;2023-07-09T11:58:00;34.80;1.00
6486;DHT22;3276;48.490;9.222;2023-07-09T12:00:29;35.00;1.00
6486;DHT22;3276;48.490;9.222;2023-07-09T12:02:56;35.10;1.00
6486;DHT22;3276;48.490;9.222;2023-07-09T12:05:27;35.30;1.00
6486;DHT22;3276;48.490;9.222;2023-07-09T12:07:54;35.40;1.00
6486;DHT22;3276;48.490;9.222;2023-07-09T12:10:32;35.40;1.00
6486;DHT22;3276;48.490;9.222;2023-07-09T12:12:59;35.20;1.00
6486;DHT22;3276;48.490;9.222;2023-07-09T12:15:28;35.00;1.00
6486;DHT22;3276;48.490;9.222;2023-07-09T12:18:03;35.00;1.00
6486;DHT22;3276;48.490;9.222;2023-07-09T12:20:32;34.90;1.00
6486;DHT22;3276;48.490;9.222;2023-07-09T12:23:00;35.00;1.00
6486;DHT22;3276;48.490;9.222;2023-07-09T12:25:29;34.90;1.00
6486;DHT22;3276;48.490;9.222;2023-07-09T12:27:58;34.80;1.00
6486;DHT22;3276;48.490;9.222;2023-07-09T12:30:23;34.60;1.00
6486;DHT22;3276;48.490;9.222;2023-07-09T12:32:50;34.50;1.00
6486;DHT22;3276;48.490;9.222;2023-07-09T12:35:19;34.60;1.00
6486;DHT22;3276;48.490;9.222;2023-07-09T12:37:47;34.60;1.00
6486;DHT22;3276;48.490;9.222;2023-07-09T12:40:20;34.50;1.00
6486;DHT22;3276;48.490;9.222;2023-07-09T12:42:47;34.50;1.00
6486;DHT22;3276;48.490;9.222;2023-07-09T12:45:18;34.70;1.00
6486;DHT22;3276;48.490;9.222;2023-07-09T12:47:45;34.80;1.00
6486;DHT22;3276;48.490;9.222;2023-07-09T12:50:22;35.00;1.00
6486;DHT22;3276;48.490;9.222;2023-07-09T12:52:55;35.20;1.00
6486;DHT22;3276;48.490;9.222;2023-07-09T12:55:26;35.30;1.00
6486;DHT22;3276;48.490;9.222;2023-07-09T12:57:56;35.00;1.00
6486;DHT22;3276;48.490;9.222;2023-07-09T13:00:22;35.10;1.00
6486;DHT22;3276;48.490;9.222;2023-07-09T13:02:54;35.20;1.00
6486;DHT22;3276;48.490;9.222;2023-07-09T13:05:23;35.20;1.00
6486;DHT22;3276;48.490;9.222;2023-07-09T13:07:59;35.20;1.00
6486;DHT22;3276;48.490;9.222;2023-07-09T13:10:28;35.20;1.00
6486;DHT22;3276;48.490;9.222;2023-07-09T13:12:55;35.20;1.00
6486;DHT22;3276;48.490;9.222;2023-07-09T13:15:24;35.20;1.00
6486;DHT22;3276;48.490;9.222;2023-07-09T13:17:57;35.30;1.00
6486;DHT22;3276;48.490;9.222;2023-07-09T13:20:23;35.40;1.00
6486;DHT22;3276;48.490;9.222;2023-07-09T13:22:49;35.40;1.00
6486;DHT22;3276;48.490;9.222;2023-07-09T13:25:14;35.40;1.00
6486;DHT22;3276;48.490;9.222;2023-07-09T13:27:40;35.40;1.00
6486;DHT22;3276;48.490;9.222;2023-07-09T13:30:14;35.30;1.00
6486;DHT22;3276;48.490;9.222;2023-07-09T13:32:39;35.40;1.00
6486;DHT22;3276;48.490;9.222;2023-07-09T13:35:18;35.20;1.00
6486;DHT22;3276;48.490;9.222;2023-07-09T13:37:45;35.00;1.00
6486;DHT22;3276;48.490;9.222;2023-07-09T13:40:13;35.00;1.00
6486;DHT22;3276;48.490;9.222;2023-07-09T13:42:41;34.80;1.00
6486;DHT22;3276;48.490;9.222;2023-07-09T13:45:16;34.80;1.00
6486;DHT22;3276;48.490;9.222;2023-07-09T13:47:42;34.80;1.00
6486;DHT22;3276;48.490;9.222;2023-07-09T13:50:08;34.80;1.00
6486;DHT22;3276;48.490;9.222;2023-07-09T13:52:34;34.90;1.00
6486;DHT22;3276;48.490;9.222;2023-07-09T13:55:00;35.20;1.00
6486;DHT22;3276;48.490;9.222;2023-07-09T13:57:25;35.60;1.00
6486;DHT22;3276;48.490;9.222;2023-07-09T13:59:51;35.90;1.00
6486;DHT22;3276;48.490;9.222;2023-07-09T14:02:29;36.10;1.00
6486;DHT22;3276;48.490;9.222;2023-07-09T14:04:58;36.20;1.00
6486;DHT22;3276;48.490;9.222;2023-07-09T14:07:32;36.20;1.00
6486;DHT22;3276;48.490;9.222;2023-07-09T14:09:58;36.20;1.00
6486;DHT22;3276;48.490;9.222;2023-07-09T14:12:25;36.10;1.00
6486;DHT22;3276;48.490;9.222;2023-07-09T14:14:52;36.00;1.00
6486;DHT22;3276;48.490;9.222;2023-07-09T14:17:19;36.00;1.00
6486;DHT22;3276;48.490;9.222;2023-07-09T14:19:45;36.10;1.00
6486;DHT22;3276;48.490;9.222;2023-07-09T14:22:33;36.10;1.00
6486;DHT22;3276;48.490;9.222;2023-07-09T14:25:00;36.10;1.00
6486;DHT22;3276;48.490;9.222;2023-07-09T14:27:26;36.00;1.00
6486;DHT22;3276;48.490;9.222;2023-07-09T14:29:53;36.00;1.00
6486;DHT22;3276;48.490;9.222;2023-07-09T14:34:47;36.10;1.00
6486;DHT22;3276;48.490;9.222;2023-07-09T14:37:13;36.10;1.00
6486;DHT22;3276;48.490;9.222;2023-07-09T14:39:38;36.10;1.00
6486;DHT22;3276;48.490;9.222;2023-07-09T14:42:04;36.00;1.00
6486;DHT22;3276;48.490;9.222;2023-07-09T14:44:31;35.80;1.00
6486;DHT22;3276;48.490;9.222;2023-07-09T14:46:59;36.00;1.00
6486;DHT22;3276;48.490;9.222;2023-07-09T14:49:26;35.90;1.00
6486;DHT22;3276;48.490;9.222;2023-07-09T14:51:53;35.90;1.00
6486;DHT22;3276;48.490;9.222;2023-07-09T14:54:25;36.00;1.00
6486;DHT22;3276;48.490;9.222;2023-07-09T14:56:52;36.00;1.00
6486;DHT22;3276;48.490;9.222;2023-07-09T14:59:18;36.10;1.00
6486;DHT22;3276;48.490;9.222;2023-07-09T15:01:44;36.10;1.00
6486;DHT22;3276;48.490;9.222;2023-07-09T15:06:48;36.00;1.00
6486;DHT22;3276;48.490;9.222;2023-07-09T15:09:14;35.80;1.00
6486;DHT22;3276;48.490;9.222;2023-07-09T15:11:42;35.80;1.00
6486;DHT22;3276;48.490;9.222;2023-07-09T15:14:11;35.90;1.00
6486;DHT22;3276;48.490;9.222;2023-07-09T15:16:37;35.80;1.00
6486;DHT22;3276;48.490;9.222;2023-07-09T15:19:17;35.50;1.00
6486;DHT22;3276;48.490;9.222;2023-07-09T15:21:44;35.40;1.00
6486;DHT22;3276;48.490;9.222;2023-07-09T15:26:52;35.20;1.00
6486;DHT22;3276;48.490;9.222;2023-07-09T15:29:18;35.20;1.00
6486;DHT22;3276;48.490;9.222;2023-07-09T15:31:44;35.20;1.00
6486;DHT22;3276;48.490;9.222;2023-07-09T15:34:10;35.30;1.00
6486;DHT22;3276;48.490;9.222;2023-07-09T15:36:36;35.30;1.00
6486;DHT22;3276;48.490;9.222;2023-07-09T15:39:02;35.60;1.00
6486;DHT22;3276;48.490;9.222;2023-07-09T15:41:28;35.60;1.00
6486;DHT22;3276;48.490;9.222;2023-07-09T15:43:53;35.70;1.00
6486;DHT22;3276;48.490;9.222;2023-07-09T15:46:21;35.80;1.00
6486;DHT22;3276;48.490;9.222;2023-07-09T15:48:48;35.70;1.00
6486;DHT22;3276;48.490;9.222;2023-07-09T15:51:15;35.60;1.00
6486;DHT22;3276;48.490;9.222;2023-07-09T15:53:41;35.60;1.00
6486;DHT22;3276;48.490;9.222;2023-07-09T15:56:29;35.50;1.00
6486;DHT22;3276;48.490;9.222;2023-07-09T15:58:56;35.60;1.00
6486;DHT22;3276;48.490;9.222;2023-07-09T16:01:22;35.50;1.00
6486;DHT22;3276;48.490;9.222;2023-07-09T16:03:59;35.40;1.00
6486;DHT22;3276;48.490;9.222;2023-07-09T16:06:25;35.30;1.00
6486;DHT22;3276;48.490;9.222;2023-07-09T16:08:51;35.40;1.00
6486;DHT22;3276;48.490;9.222;2023-07-09T16:11:20;35.30;1.00
6486;DHT22;3276;48.490;9.222;2023-07-09T16:13:50;35.10;1.00
6486;DHT22;3276;48.490;9.222;2023-07-09T16:16:18;35.10;1.00
6486;DHT22;3276;48.490;9.222;2023-07-09T16:18:44;35.00;1.00
6486;DHT22;3276;48.490;9.222;2023-07-09T16:21:27;34.80;1.00
6486;DHT22;3276;48.490;9.222;2023-07-09T16:23:54;34.60;1.00
6486;DHT22;3276;48.490;9.222;2023-07-09T16:26:21;34.50;1.00
6486;DHT22;3276;48.490;9.222;2023-07-09T16:28:49;34.50;1.00
6486;DHT22;3276;48.490;9.222;2023-07-09T16:31:15;34.50;1.00
6486;DHT22;3276;48.490;9.222;2023-07-09T16:33:41;34.50;1.00
6486;DHT22;3276;48.490;9.222;2023-07-09T16:36:13;34.40;1.00
6486;DHT22;3276;48.490;9.222;2023-07-09T16:38:39;34.60;1.00
6486;DHT22;3276;48.490;9.222;2023-07-09T16:41:05;34.60;1.00
6486;DHT22;3276;48.490;9.222;2023-07-09T16:43:31;34.60;1.00
6486;DHT22;3276;48.490;9.222;2023-07-09T16:45:56;34.60;1.00
6486;DHT22;3276;48.490;9.222;2023-07-09T16:48:23;34.60;1.00
6486;DHT22;3276;48.490;9.222;2023-07-09T16:50:52;34.60;1.00
6486;DHT22;3276;48.490;9.222;2023-07-09T16:53:19;34.60;1.00
6486;DHT22;3276;48.490;9.222;2023-07-09T16:55:46;34.50;1.00
6486;DHT22;3276;48.490;9.222;2023-07-09T17:00:52;34.30;1.00
6486;DHT22;3276;48.490;9.222;2023-07-09T17:03:17;34.20;1.00
6486;DHT22;3276;48.490;9.222;2023-07-09T17:05:43;34.10;1.00
6486;DHT22;3276;48.490;9.222;2023-07-09T17:08:09;34.00;1.00